Time;durP1;ratioP1;P1;durP2;ratioP2;P2;SDS_P1;SDS_P2;PMS_P1;PMS_P2;Temp;Humidity;BMP_temperature;BMP_pressure;BME280_temperature;BME280_humidity;BME280_pressure;Samples;Min_cycle;Max_cycle;Signal;HPM_P1;HPM_P2
2021/04/04 00:02:25;;;;;;;9.47;4.67;;;1.00;99.90;;;;;;4995035;28;20274;-76
2021/04/04 00:04:51;;;;;;;8.77;4.90;;;0.90;99.90;;;;;;4994880;28;20172;-76
2021/04/04 00:07:17;;;;;;;11.93;5.60;;;0.70;99.90;;;;;;4994985;28;20202;-76
2021/04/04 00:09:43;;;;;;;11.87;5.97;;;0.60;99.90;;;;;;4995054;28;20501;-77
2021/04/04 00:12:10;;;;;;;9.67;5.33;;;0.60;99.90;;;;;;4995045;28;20172;-76
2021/04/04 00:14:36;;;;;;;9.30;5.10;;;0.60;99.90;;;;;;4994855;28;20646;-76
2021/04/04 00:17:03;;;;;;;9.10;5.90;;;0.50;99.90;;;;;;4994636;28;20501;-76
2021/04/04 00:19:29;;;;;;;9.70;5.23;;;0.40;99.90;;;;;;4994876;28;20262;-76
2021/04/04 00:21:55;;;;;;;10.43;5.10;;;0.40;99.90;;;;;;4993485;28;20917;-76
2021/04/04 00:24:20;;;;;;;6.40;4.67;;;0.30;99.90;;;;;;4994609;28;20171;-76
2021/04/04 00:26:46;;;;;;;7.83;4.77;;;0.30;99.90;;;;;;4994486;28;20235;-76
2021/04/04 00:29:12;;;;;;;7.77;5.23;;;0.30;99.90;;;;;;4994745;28;20176;-76
2021/04/04 00:31:39;;;;;;;9.07;4.47;;;0.30;99.90;;;;;;4994689;28;20195;-76
2021/04/04 00:34:06;;;;;;;9.17;5.00;;;0.30;99.90;;;;;;4994298;28;20494;-76
2021/04/04 00:36:32;;;;;;;13.13;5.53;;;0.30;99.90;;;;;;4993036;28;20603;-76
2021/04/04 00:38:58;;;;;;;8.27;4.63;;;0.30;99.90;;;;;;4994328;28;20422;-76
2021/04/04 00:41:24;;;;;;;8.23;4.90;;;0.30;99.90;;;;;;4994332;28;20923;-76
2021/04/04 00:43:49;;;;;;;8.03;4.63;;;0.30;99.90;;;;;;4993016;28;20545;-76
2021/04/04 00:46:15;;;;;;;10.90;5.13;;;0.20;99.90;;;;;;4992707;28;20206;-76
2021/04/04 00:48:41;;;;;;;7.93;5.13;;;0.20;99.90;;;;;;4994210;28;20184;-76
2021/04/04 00:51:06;;;;;;;12.10;5.33;;;0.20;99.90;;;;;;4993735;28;20180;-76
2021/04/04 00:53:33;;;;;;;8.03;3.93;;;0.10;99.90;;;;;;4994107;28;20214;-76
2021/04/04 00:55:58;;;;;;;7.73;4.87;;;0.10;99.90;;;;;;4993988;28;20736;-76
2021/04/04 00:58:24;;;;;;;9.90;5.70;;;0.10;99.90;;;;;;4992587;28;20474;-76
2021/04/04 01:00:50;;;;;;;9.23;5.47;;;0.10;99.90;;;;;;4993984;28;20182;-76
2021/04/04 01:03:16;;;;;;;10.50;5.23;;;0.10;99.90;;;;;;4992755;28;20275;-76
2021/04/04 01:05:45;;;;;;;9.00;5.47;;;0.10;99.90;;;;;;4993783;28;20205;-76
2021/04/04 01:08:11;;;;;;;12.30;4.70;;;0.10;99.90;;;;;;4993978;28;20637;-76
2021/04/04 01:10:43;;;;;;;10.10;5.33;;;0.10;99.90;;;;;;4993932;28;20414;-76
2021/04/04 01:13:30;;;;;;;10.73;4.90;;;0.00;99.90;;;;;;4992669;28;20548;-76
2021/04/04 01:16:23;;;;;;;11.27;4.73;;;0.00;99.90;;;;;;4993855;28;20809;-76
2021/04/04 01:18:56;;;;;;;8.93;5.57;;;0.00;99.90;;;;;;4992549;28;20570;-76
2021/04/04 01:21:35;;;;;;;11.13;5.20;;;0.00;99.90;;;;;;4993999;28;20461;-76
2021/04/04 01:24:19;;;;;;;6.93;4.70;;;-0.10;99.90;;;;;;4993799;28;20453;-76
2021/04/04 01:26:51;;;;;;;8.73;4.97;;;-0.10;99.90;;;;;;4993684;28;20462;-76
2021/04/04 01:29:20;;;;;;;10.67;5.27;;;0.00;99.90;;;;;;4993709;28;20425;-76
2021/04/04 01:31:49;;;;;;;9.77;5.43;;;-0.10;99.90;;;;;;4992459;28;20411;-76
2021/04/04 01:34:17;;;;;;;7.70;5.00;;;-0.10;99.90;;;;;;4993917;28;20464;-76
2021/04/04 01:36:46;;;;;;;7.23;4.50;;;-0.20;99.90;;;;;;4993976;28;20430;-76
2021/04/04 01:39:14;;;;;;;9.97;5.20;;;-0.30;99.90;;;;;;4993042;28;20418;-76
2021/04/04 01:41:42;;;;;;;9.13;5.07;;;-0.30;99.90;;;;;;4994170;28;20453;-76
2021/04/04 01:44:17;;;;;;;10.73;4.87;;;-0.30;99.90;;;;;;4992430;28;20422;-76
2021/04/04 01:46:46;;;;;;;7.53;4.60;;;-0.40;99.90;;;;;;4994094;28;20438;-76
2021/04/04 01:49:13;;;;;;;8.30;4.77;;;-0.40;99.90;;;;;;4993881;28;20931;-76
2021/04/04 01:51:41;;;;;;;9.00;4.23;;;-0.40;99.90;;;;;;4994147;28;20426;-76
2021/04/04 01:54:08;;;;;;;5.67;4.17;;;-0.40;99.90;;;;;;4993643;28;20465;-76
2021/04/04 01:56:35;;;;;;;9.37;4.37;;;-0.50;99.90;;;;;;4993598;28;20465;-76
2021/04/04 01:59:02;;;;;;;7.63;4.87;;;-0.50;99.90;;;;;;4992409;28;20430;-76
2021/04/04 02:01:29;;;;;;;10.33;4.77;;;-0.50;99.90;;;;;;4993651;28;20411;-76
2021/04/04 02:04:00;;;;;;;9.23;4.40;;;-0.60;99.90;;;;;;4997324;28;20445;-77
2021/04/04 02:06:26;;;;;;;7.40;4.57;;;-0.60;99.90;;;;;;4996229;28;20952;-76
2021/04/04 02:08:54;;;;;;;8.33;4.67;;;-0.60;99.90;;;;;;4996347;28;20928;-77
2021/04/04 02:11:24;;;;;;;9.43;5.33;;;-0.60;99.90;;;;;;4997733;28;20446;-77
2021/04/04 02:13:51;;;;;;;9.13;5.33;;;-0.70;99.90;;;;;;4998148;28;20406;-77
2021/04/04 02:16:18;;;;;;;11.07;5.73;;;-0.70;99.90;;;;;;4997296;28;20818;-76
2021/04/04 02:18:45;;;;;;;12.30;6.97;;;-0.60;99.90;;;;;;4997283;28;20454;-76
2021/04/04 02:21:13;;;;;;;9.50;6.07;;;-0.70;99.90;;;;;;4997870;28;20422;-76
2021/04/04 02:23:40;;;;;;;15.67;9.57;;;-0.70;99.90;;;;;;4997119;28;20430;-76
2021/04/04 02:26:05;;;;;;;16.47;9.07;;;-0.80;99.90;;;;;;5028585;28;20423;-76
2021/04/04 02:28:31;;;;;;;16.23;8.27;;;-0.80;99.90;;;;;;4995701;28;20541;-76
2021/04/04 02:30:58;;;;;;;23.60;13.07;;;-0.80;99.90;;;;;;4997078;28;20175;-76
2021/04/04 02:33:36;;;;;;;25.40;13.87;;;-0.70;99.90;;;;;;4997640;28;20514;-76
2021/04/04 02:36:09;;;;;;;35.00;16.77;;;-0.80;99.90;;;;;;4995422;28;20473;-76
2021/04/04 02:38:41;;;;;;;54.73;27.87;;;-0.90;99.90;;;;;;4995611;28;20508;-76
2021/04/04 02:41:09;;;;;;;33.17;17.17;;;-0.90;99.90;;;;;;5011976;28;20525;-76
2021/04/04 02:43:38;;;;;;;19.03;11.13;;;-0.90;99.90;;;;;;4996839;28;20494;-76
2021/04/04 02:46:08;;;;;;;19.40;10.63;;;-1.00;99.90;;;;;;4995416;28;20494;-76
2021/04/04 02:48:43;;;;;;;17.73;9.47;;;-1.00;99.90;;;;;;4996769;28;20413;-76
2021/04/04 02:51:12;;;;;;;12.10;8.03;;;-1.00;99.90;;;;;;4996869;28;20493;-76
2021/04/04 02:53:46;;;;;;;7.27;5.23;;;-1.00;99.90;;;;;;4996640;28;20646;-76
2021/04/04 02:56:16;;;;;;;8.63;4.80;;;-1.10;99.90;;;;;;4996041;28;20435;-76
2021/04/04 02:58:43;;;;;;;8.30;5.43;;;-1.00;99.90;;;;;;4995260;28;20454;-76
2021/04/04 03:01:10;;;;;;;6.77;4.47;;;-1.00;99.90;;;;;;4996485;28;20473;-76
2021/04/04 03:03:38;;;;;;;7.10;5.00;;;-1.00;99.90;;;;;;4995189;28;20930;-76
2021/04/04 03:06:07;;;;;;;12.00;4.67;;;-1.00;99.90;;;;;;4996338;28;20492;-76
2021/04/04 03:08:38;;;;;;;7.97;4.93;;;-1.10;99.90;;;;;;4995136;28;20431;-76
2021/04/04 03:11:04;;;;;;;6.57;4.80;;;-1.10;99.90;;;;;;4996361;28;20407;-76
2021/04/04 03:13:30;;;;;;;8.67;4.90;;;-1.10;99.90;;;;;;4996104;28;20900;-76
2021/04/04 03:15:56;;;;;;;9.47;4.83;;;-1.20;99.90;;;;;;4996044;28;20445;-76
2021/04/04 03:18:25;;;;;;;8.00;4.40;;;-1.20;99.90;;;;;;5027731;28;20558;-76
2021/04/04 03:20:51;;;;;;;8.53;5.20;;;-1.10;99.90;;;;;;4996249;28;20502;-76
2021/04/04 03:23:18;;;;;;;7.57;4.40;;;-1.20;99.90;;;;;;4996116;28;20410;-76
2021/04/04 03:25:46;;;;;;;5.67;3.97;;;-1.20;99.90;;;;;;4996074;28;20419;-76
2021/04/04 03:28:15;;;;;;;6.17;4.77;;;-1.20;99.90;;;;;;4994639;28;20496;-76
2021/04/04 03:30:43;;;;;;;8.70;4.53;;;-1.30;99.90;;;;;;4994523;28;20426;-76
2021/04/04 03:33:19;;;;;;;8.23;4.77;;;-1.30;99.90;;;;;;4996023;28;20456;-76
2021/04/04 03:35:48;;;;;;;7.10;4.47;;;-1.30;99.90;;;;;;4995646;28;20403;-76
2021/04/04 03:38:16;;;;;;;9.00;4.63;;;-1.30;99.90;;;;;;4995726;28;20486;-76
2021/04/04 03:40:43;;;;;;;6.50;4.47;;;-1.40;99.90;;;;;;4994435;28;20418;-76
2021/04/04 03:43:14;;;;;;;8.07;5.17;;;-1.40;99.90;;;;;;4995674;28;20419;-76
2021/04/04 03:45:39;;;;;;;9.60;4.87;;;-1.40;99.90;;;;;;4995643;28;20415;-76
2021/04/04 03:48:06;;;;;;;10.83;5.23;;;-1.30;99.90;;;;;;4995562;28;20892;-76
2021/04/04 03:50:37;;;;;;;8.67;5.27;;;-1.40;99.90;;;;;;4995500;28;20270;-76
2021/04/04 03:53:04;;;;;;;10.77;5.27;;;-1.40;99.90;;;;;;4995730;28;20450;-76
2021/04/04 03:55:31;;;;;;;8.73;4.93;;;-1.40;99.90;;;;;;4995357;28;20410;-76
2021/04/04 03:57:58;;;;;;;8.00;4.83;;;-1.30;99.90;;;;;;4994892;28;21038;-76
2021/04/04 04:00:26;;;;;;;8.37;4.43;;;-1.30;99.90;;;;;;4995569;28;20415;-76
2021/04/04 04:02:52;;;;;;;12.10;4.97;;;-1.40;99.90;;;;;;4995249;28;20499;-76
2021/04/04 04:05:21;;;;;;;10.33;4.90;;;-1.40;99.90;;;;;;4995045;28;20919;-76
2021/04/04 04:07:48;;;;;;;12.93;5.27;;;-1.40;99.90;;;;;;4995230;28;20446;-76
2021/04/04 04:10:17;;;;;;;11.07;5.80;;;-1.40;99.90;;;;;;4993806;28;20485;-76
2021/04/04 04:12:44;;;;;;;15.57;5.73;;;-1.40;99.90;;;;;;4995001;28;20433;-76
2021/04/04 04:15:12;;;;;;;9.67;5.77;;;-1.40;99.90;;;;;;4993640;28;20423;-76
2021/04/04 04:17:39;;;;;;;11.13;5.97;;;-1.40;99.90;;;;;;4993673;28;20530;-76
2021/04/04 04:20:06;;;;;;;10.23;6.10;;;-1.50;99.90;;;;;;4994752;28;20477;-76
2021/04/04 04:22:32;;;;;;;11.20;5.50;;;-1.50;99.90;;;;;;4995189;28;20422;-76
2021/04/04 04:24:58;;;;;;;13.07;6.07;;;-1.50;99.90;;;;;;4994036;28;20426;-76
2021/04/04 04:27:25;;;;;;;9.23;4.90;;;-1.40;99.90;;;;;;4994898;28;20202;-76
2021/04/04 04:29:51;;;;;;;6.77;3.57;;;-1.50;99.90;;;;;;4995504;28;20418;-76
2021/04/04 04:32:24;;;;;;;10.40;5.00;;;-1.50;99.90;;;;;;4994793;28;20418;-76
2021/04/04 04:34:50;;;;;;;9.00;5.00;;;-1.60;99.90;;;;;;4994550;28;20549;-76
2021/04/04 04:37:17;;;;;;;7.77;4.33;;;-1.60;99.90;;;;;;4993373;28;20516;-76
2021/04/04 04:39:43;;;;;;;7.57;4.63;;;-1.70;99.90;;;;;;4994838;28;20493;-76
2021/04/04 04:42:13;;;;;;;6.00;4.13;;;-1.70;99.90;;;;;;4994484;28;20500;-76
2021/04/04 04:44:47;;;;;;;7.37;4.60;;;-1.70;99.90;;;;;;4994505;28;20194;-76
2021/04/04 04:47:13;;;;;;;8.30;4.87;;;-1.70;99.90;;;;;;4993174;28;20457;-76
2021/04/04 04:49:44;;;;;;;9.37;4.93;;;-1.60;99.90;;;;;;4994661;28;20426;-76
2021/04/04 04:52:10;;;;;;;6.83;4.67;;;-1.60;99.90;;;;;;4994312;28;20454;-76
2021/04/04 04:54:43;;;;;;;9.43;4.97;;;-1.70;99.90;;;;;;4994326;28;20411;-76
2021/04/04 04:57:11;;;;;;;8.47;4.60;;;-1.70;99.90;;;;;;4994395;28;20478;-76
2021/04/04 04:59:37;;;;;;;7.37;4.80;;;-1.70;99.90;;;;;;4993072;28;20449;-76
2021/04/04 05:02:08;;;;;;;7.40;4.23;;;-1.70;99.90;;;;;;4994573;28;20443;-76
2021/04/04 05:04:34;;;;;;;11.03;5.63;;;-1.70;99.90;;;;;;5026036;28;20422;-76
2021/04/04 05:07:00;;;;;;;8.00;5.00;;;-1.70;99.90;;;;;;4992983;28;20537;-76
2021/04/04 05:09:26;;;;;;;8.70;5.17;;;-1.60;99.90;;;;;;4994269;28;20520;-76
2021/04/04 05:11:53;;;;;;;10.67;5.93;;;-1.60;99.90;;;;;;4994373;28;20456;-76
2021/04/04 05:14:19;;;;;;;7.73;4.57;;;-1.60;99.90;;;;;;4994321;28;20513;-76
2021/04/04 05:16:47;;;;;;;9.37;5.63;;;-1.60;99.90;;;;;;4994205;28;20514;-76
2021/04/04 05:19:13;;;;;;;7.13;4.83;;;-1.60;99.90;;;;;;4992881;28;20629;-76
2021/04/04 05:21:41;;;;;;;8.97;5.27;;;-1.50;99.90;;;;;;4994108;28;20822;-76
2021/04/04 05:24:13;;;;;;;10.33;6.00;;;-1.50;99.90;;;;;;4992788;28;20486;-76
2021/04/04 05:26:41;;;;;;;7.27;5.03;;;-1.60;99.90;;;;;;4994103;28;20991;-76
2021/04/04 05:29:09;;;;;;;6.80;4.67;;;-1.50;99.90;;;;;;4994517;28;20447;-77
2021/04/04 05:31:47;;;;;;;8.13;4.70;;;-1.50;99.90;;;;;;4994326;28;20407;-75
2021/04/04 05:34:18;;;;;;;11.60;5.60;;;-1.50;99.90;;;;;;4994516;28;20399;-76
2021/04/04 05:36:59;;;;;;;11.33;5.33;;;-1.50;99.90;;;;;;4995477;28;20200;-76
2021/04/04 05:39:26;;;;;;;8.87;5.53;;;-1.50;99.90;;;;;;4998102;28;20622;-76
2021/04/04 05:41:57;;;;;;;9.37;4.63;;;-1.40;99.90;;;;;;5029457;28;20888;-76
2021/04/04 05:44:58;;;;;;;9.20;5.67;;;-1.40;99.90;;;;;;4996375;28;20423;-76
2021/04/04 05:47:41;;;;;;;8.00;4.77;;;-1.30;99.90;;;;;;4996638;28;20462;-76
2021/04/04 05:50:14;;;;;;;14.13;6.10;;;-1.30;99.90;;;;;;4998033;28;20179;-76
2021/04/04 05:52:42;;;;;;;8.10;4.80;;;-1.20;99.90;;;;;;4997758;28;20412;-76
2021/04/04 05:55:37;;;;;;;11.57;5.63;;;-1.20;99.90;;;;;;4996163;28;20195;-76
2021/04/04 05:58:10;;;;;;;9.80;5.20;;;-1.10;99.90;;;;;;4997394;28;20984;-75
2021/04/04 06:00:41;;;;;;;7.70;5.50;;;-1.00;99.90;;;;;;4997570;28;20828;-75
2021/04/04 06:03:22;;;;;;;9.17;5.57;;;-1.00;99.90;;;;;;4997629;28;20254;-75
2021/04/04 06:06:26;;;;;;;7.23;4.80;;;-0.80;99.90;;;;;;4989016;28;20472;-75
2021/04/04 06:09:01;;;;;;;11.30;5.67;;;-0.80;99.90;;;;;;4977291;28;20243;-75
2021/04/04 06:11:51;;;;;;;13.50;5.63;;;-0.70;99.90;;;;;;4976829;28;20180;-75
2021/04/04 06:14:17;;;;;;;7.27;4.90;;;-0.60;99.90;;;;;;4976529;28;20180;-75
2021/04/04 06:16:57;;;;;;;7.63;5.37;;;-0.50;99.90;;;;;;4977568;28;20206;-75
2021/04/04 06:19:44;;;;;;;9.73;6.13;;;-0.40;99.90;;;;;;4976525;28;20545;-75
2021/04/04 06:22:42;;;;;;;10.20;5.67;;;-0.40;99.90;;;;;;4978158;28;20172;-75
2021/04/04 06:25:33;;;;;;;9.10;5.77;;;-0.30;99.90;;;;;;4977690;28;20165;-76
2021/04/04 06:28:25;;;;;;;8.93;5.83;;;-0.20;99.90;;;;;;4977898;28;20169;-76
2021/04/04 06:31:49;;;;;;;9.33;5.73;;;-0.10;99.90;;;;;;4976323;28;20196;-75
2021/04/04 06:34:21;;;;;;;11.60;5.93;;;0.00;99.90;;;;;;4934119;28;20723;-76
2021/04/04 06:36:55;;;;;;;12.13;5.80;;;0.20;99.90;;;;;;4977464;28;20200;-77
2021/04/04 06:39:54;;;;;;;9.40;5.50;;;0.40;99.90;;;;;;4977997;28;20169;-76
2021/04/04 06:42:36;;;;;;;7.30;4.80;;;0.50;99.90;;;;;;4977524;28;20433;-75
2021/04/04 06:45:13;;;;;;;10.77;6.00;;;0.60;99.90;;;;;;4977625;28;20164;-77
2021/04/04 06:48:05;;;;;;;10.97;5.57;;;0.80;99.90;;;;;;4976545;28;20215;-75
2021/04/04 06:50:39;;;;;;;10.60;6.00;;;0.90;99.90;;;;;;4977737;28;20173;-76
2021/04/04 06:53:28;;;;;;;9.43;4.90;;;1.10;99.90;;;;;;4976981;28;20176;-78
2021/04/04 06:56:16;;;;;;;10.03;6.53;;;1.20;99.90;;;;;;4977199;28;20196;-76
2021/04/04 06:59:04;;;;;;;12.93;7.83;;;1.30;99.90;;;;;;4977301;28;20279;-76
2021/04/04 07:01:40;;;;;;;8.77;6.20;;;1.50;99.90;;;;;;4977588;28;20181;-76
2021/04/04 07:04:26;;;;;;;9.10;5.57;;;1.70;99.90;;;;;;4976971;28;20160;-76
2021/04/04 07:07:36;;;;;;;15.90;7.03;;;2.00;99.90;;;;;;4975580;28;20555;-76
2021/04/04 07:10:16;;;;;;;7.33;4.83;;;2.40;99.90;;;;;;4899333;29;20589;-76
2021/04/04 07:13:03;;;;;;;9.57;5.73;;;2.60;99.90;;;;;;4898512;29;20177;-77
2021/04/04 07:15:53;;;;;;;6.87;5.33;;;2.90;99.90;;;;;;4957144;28;20765;-76
2021/04/04 07:18:35;;;;;;;9.90;5.73;;;3.60;99.90;;;;;;4975346;28;20301;-76
2021/04/04 07:21:40;;;;;;;7.00;4.60;;;4.50;99.90;;;;;;4975395;28;20599;-76
2021/04/04 07:24:30;;;;;;;6.63;4.70;;;5.30;99.90;;;;;;4937000;28;20197;-77
2021/04/04 07:27:03;;;;;;;9.13;5.20;;;6.10;99.90;;;;;;4977085;28;20197;-76
2021/04/04 07:29:50;;;;;;;9.47;4.73;;;6.70;99.90;;;;;;4975529;28;20264;-77
2021/04/04 07:32:21;;;;;;;9.40;4.53;;;7.20;99.90;;;;;;4976844;28;20211;-77
2021/04/04 07:35:06;;;;;;;7.73;4.67;;;7.30;99.90;;;;;;4976451;28;20171;-77
2021/04/04 07:37:38;;;;;;;6.57;4.17;;;7.60;99.90;;;;;;4976268;28;20241;-77
2021/04/04 07:40:14;;;;;;;7.33;4.83;;;8.00;99.90;;;;;;4976544;28;20171;-77
2021/04/04 07:42:45;;;;;;;7.00;4.93;;;8.60;99.90;;;;;;4976731;28;20170;-77
2021/04/04 07:45:52;;;;;;;9.97;4.87;;;9.00;99.90;;;;;;4976315;28;20218;-77
2021/04/04 07:48:25;;;;;;;6.97;5.23;;;9.70;99.60;;;;;;4965931;28;20203;-77
2021/04/04 07:51:04;;;;;;;8.30;5.17;;;10.40;97.00;;;;;;4976307;28;20231;-77
2021/04/04 07:53:40;;;;;;;6.60;4.03;;;10.50;94.70;;;;;;4992439;28;20191;-77
2021/04/04 07:56:20;;;;;;;6.27;4.47;;;11.10;90.90;;;;;;4974700;28;20601;-77
2021/04/04 07:59:13;;;;;;;5.70;3.37;;;11.10;88.00;;;;;;4976967;28;20188;-77
2021/04/04 08:01:54;;;;;;;7.60;3.80;;;11.60;82.20;;;;;;4974396;28;20173;-77
2021/04/04 08:04:40;;;;;;;5.57;3.33;;;12.10;76.70;;;;;;4976008;28;20161;-77
2021/04/04 08:07:19;;;;;;;5.50;2.60;;;12.60;72.80;;;;;;4974590;28;20204;-77
2021/04/04 08:09:58;;;;;;;6.70;3.10;;;13.00;74.20;;;;;;4975717;28;20165;-77
2021/04/04 08:12:37;;;;;;;4.07;2.30;;;13.00;72.60;;;;;;4976655;28;20623;-77
2021/04/04 08:15:07;;;;;;;5.10;2.77;;;12.90;68.40;;;;;;4977613;28;20196;-77
2021/04/04 08:17:36;;;;;;;7.20;2.40;;;12.80;67.30;;;;;;4977397;28;20297;-80
2021/04/04 08:20:09;;;;;;;4.13;2.73;;;13.20;68.30;;;;;;4976393;28;20232;-77
2021/04/04 08:22:39;;;;;;;4.30;2.63;;;13.10;68.80;;;;;;4978110;28;20198;-80
2021/04/04 08:25:19;;;;;;;4.53;3.27;;;13.50;61.70;;;;;;4979458;28;20574;-80
2021/04/04 08:27:54;;;;;;;4.40;2.03;;;13.50;61.40;;;;;;4977686;28;20190;-77
2021/04/04 08:30:47;;;;;;;3.83;2.33;;;13.50;59.60;;;;;;4977650;28;20165;-77
2021/04/04 08:33:29;;;;;;;4.83;2.33;;;13.20;59.10;;;;;;4976528;28;20209;-78
2021/04/04 08:36:00;;;;;;;2.57;1.97;;;13.30;62.50;;;;;;4977160;28;20236;-79
2021/04/04 08:38:29;;;;;;;6.83;2.30;;;13.70;59.80;;;;;;4976837;28;20220;-78
2021/04/04 08:40:58;;;;;;;6.43;2.50;;;13.90;61.10;;;;;;4974397;28;20541;-76
2021/04/04 08:43:25;;;;;;;6.73;2.63;;;13.70;56.60;;;;;;4974861;28;20178;-75
2021/04/04 08:46:18;;;;;;;3.23;2.13;;;13.80;59.00;;;;;;4975251;28;20261;-76
2021/04/04 08:48:45;;;;;;;5.53;2.27;;;13.70;56.30;;;;;;4941267;28;20229;-75
2021/04/04 08:51:17;;;;;;;4.10;1.80;;;13.40;55.60;;;;;;4975106;28;20174;-75
2021/04/04 08:53:46;;;;;;;3.87;1.90;;;12.90;54.00;;;;;;4974699;28;20159;-74
2021/04/04 08:56:16;;;;;;;4.10;1.83;;;13.00;54.60;;;;;;4973071;28;20243;-75
2021/04/04 08:58:48;;;;;;;44.73;14.20;;;13.30;55.30;;;;;;4975414;28;20188;-75
2021/04/04 09:01:36;;;;;;;3.50;1.97;;;13.60;49.10;;;;;;4975489;28;20167;-76
2021/04/04 09:04:04;;;;;;;6.20;2.20;;;12.30;50.00;;;;;;4975474;28;20244;-75
2021/04/04 09:06:42;;;;;;;5.57;1.93;;;11.80;54.50;;;;;;4973823;28;20202;-75
2021/04/04 09:09:16;;;;;;;4.63;2.43;;;11.90;54.90;;;;;;4975538;28;20179;-75
2021/04/04 09:11:44;;;;;;;3.03;1.53;;;12.20;54.70;;;;;;4975468;28;20531;-75
2021/04/04 09:14:10;;;;;;;5.13;2.23;;;12.50;55.20;;;;;;4974919;28;20243;-75
2021/04/04 09:16:36;;;;;;;1.77;1.43;;;12.90;54.60;;;;;;4974954;28;20195;-75
2021/04/04 09:19:02;;;;;;;5.50;1.60;;;12.90;54.90;;;;;;4974904;28;20200;-75
2021/04/04 09:21:37;;;;;;;4.43;1.57;;;12.80;54.00;;;;;;4974717;28;20185;-75
2021/04/04 09:24:03;;;;;;;2.97;1.63;;;12.70;55.10;;;;;;4974951;28;20174;-76
2021/04/04 09:26:30;;;;;;;5.90;2.20;;;12.70;54.10;;;;;;4974157;28;20725;-75
2021/04/04 09:28:56;;;;;;;4.93;2.03;;;12.70;53.80;;;;;;4975439;28;20246;-76
2021/04/04 09:31:30;;;;;;;5.83;3.00;;;12.40;52.80;;;;;;4974803;28;20538;-76
2021/04/04 09:34:05;;;;;;;3.90;2.10;;;12.50;53.90;;;;;;4975011;28;20207;-77
2021/04/04 09:36:46;;;;;;;2.73;1.90;;;12.80;53.40;;;;;;4968553;28;20245;-77
2021/04/04 09:39:15;;;;;;;3.77;1.90;;;12.40;51.30;;;;;;4955754;28;20221;-77
2021/04/04 09:41:41;;;;;;;4.00;1.70;;;12.40;53.60;;;;;;4955289;28;20236;-77
2021/04/04 09:44:09;;;;;;;3.40;1.90;;;12.40;50.90;;;;;;4955114;28;20275;-76
2021/04/04 09:46:50;;;;;;;4.47;1.90;;;12.10;52.10;;;;;;4955614;28;20204;-77
2021/04/04 09:49:51;;;;;;;4.07;1.47;;;11.60;51.40;;;;;;4955446;28;20723;-77
2021/04/04 09:52:32;;;;;;;4.23;2.30;;;11.80;53.00;;;;;;4896061;29;20282;-77
2021/04/04 09:55:17;;;;;;;5.20;2.23;;;12.10;52.60;;;;;;4946098;29;20194;-77
2021/04/04 09:57:51;;;;;;;4.50;1.83;;;12.30;53.30;;;;;;4955890;28;20280;-77
2021/04/04 10:00:24;;;;;;;3.63;2.00;;;12.60;53.80;;;;;;4954415;29;20181;-77
2021/04/04 10:02:51;;;;;;;3.10;2.10;;;12.60;52.30;;;;;;4955342;29;20234;-77
2021/04/04 10:05:36;;;;;;;4.87;1.97;;;13.00;53.70;;;;;;4953881;29;20177;-77
2021/04/04 10:08:22;;;;;;;2.60;1.70;;;13.10;53.30;;;;;;4955208;28;20201;-77
2021/04/04 10:10:50;;;;;;;3.83;2.30;;;13.20;51.30;;;;;;4955741;28;20362;-77
2021/04/04 10:13:17;;;;;;;4.23;2.00;;;12.70;49.70;;;;;;4955230;28;20196;-77
2021/04/04 10:15:48;;;;;;;2.80;1.80;;;12.40;54.90;;;;;;4955059;28;20184;-77
2021/04/04 10:18:15;;;;;;;3.70;2.23;;;12.60;52.30;;;;;;4953555;29;20209;-77
2021/04/04 10:20:47;;;;;;;2.47;1.60;;;12.70;53.50;;;;;;4955202;28;20639;-77
2021/04/04 10:23:14;;;;;;;3.63;1.80;;;12.90;52.50;;;;;;4955013;28;20560;-78
2021/04/04 10:26:05;;;;;;;3.67;2.00;;;13.50;49.90;;;;;;4959453;28;20515;-77
2021/04/04 10:28:41;;;;;;;3.27;1.87;;;13.80;51.80;;;;;;4959230;28;20253;-78
2021/04/04 10:31:07;;;;;;;4.03;2.17;;;13.80;52.10;;;;;;4957828;29;20184;-75
2021/04/04 10:33:33;;;;;;;3.53;1.90;;;13.80;53.60;;;;;;4958511;29;20183;-77
2021/04/04 10:36:12;;;;;;;2.87;1.97;;;14.00;54.10;;;;;;4958333;28;20293;-77
2021/04/04 10:38:38;;;;;;;4.77;2.13;;;14.20;50.10;;;;;;4960018;28;20673;-77
2021/04/04 10:41:03;;;;;;;4.83;2.13;;;13.60;49.30;;;;;;4959573;29;20185;-76
2021/04/04 10:43:41;;;;;;;4.57;2.60;;;13.50;49.10;;;;;;4959909;29;20200;-76
2021/04/04 10:46:09;;;;;;;3.17;1.93;;;13.30;50.10;;;;;;4957929;28;20192;-77
2021/04/04 10:48:39;;;;;;;3.60;2.07;;;12.60;48.80;;;;;;4957224;29;20181;-76
2021/04/04 10:51:07;;;;;;;4.10;1.80;;;12.30;51.80;;;;;;4958573;28;20170;-77
2021/04/04 10:53:34;;;;;;;7.47;2.20;;;12.50;52.50;;;;;;4958805;28;20259;-77
2021/04/04 10:56:00;;;;;;;3.37;2.33;;;13.00;51.30;;;;;;4957890;28;20197;-77
2021/04/04 10:58:27;;;;;;;3.70;1.97;;;13.40;52.40;;;;;;4957967;28;20213;-77
2021/04/04 11:00:55;;;;;;;3.90;2.27;;;13.70;52.40;;;;;;4956893;29;20270;-77
2021/04/04 11:03:21;;;;;;;3.43;2.13;;;14.20;54.30;;;;;;4958001;28;20200;-77
2021/04/04 11:05:48;;;;;;;5.67;2.57;;;14.20;50.20;;;;;;4957380;28;20197;-77
2021/04/04 11:08:14;;;;;;;4.53;2.23;;;14.30;51.30;;;;;;4957719;28;20201;-77
2021/04/04 11:10:40;;;;;;;5.90;2.37;;;14.00;50.90;;;;;;4956461;29;20216;-77
2021/04/04 11:13:05;;;;;;;4.50;2.20;;;14.20;52.10;;;;;;4956557;29;20221;-77
2021/04/04 11:15:41;;;;;;;4.27;2.13;;;13.50;48.20;;;;;;4957362;29;20177;-77
2021/04/04 11:18:14;;;;;;;8.63;5.50;;;13.10;50.60;;;;;;4955998;29;20291;-77
2021/04/04 11:20:42;;;;;;;2.60;2.33;;;12.90;53.40;;;;;;4956288;29;20169;-77
2021/04/04 11:23:10;;;;;;;3.50;2.30;;;12.80;49.80;;;;;;4957896;28;20169;-77
2021/04/04 11:25:36;;;;;;;4.50;3.40;;;11.90;51.50;;;;;;4958305;28;20183;-77
2021/04/04 11:28:14;;;;;;;4.10;2.07;;;11.50;52.00;;;;;;4957392;29;20189;-77
2021/04/04 11:30:41;;;;;;;12.90;11.80;;;11.70;51.00;;;;;;4959403;28;20160;-77
2021/04/04 11:33:18;;;;;;;5.37;3.03;;;12.30;53.20;;;;;;4958676;28;20661;-77
2021/04/04 11:36:04;;;;;;;8.33;4.67;;;13.50;55.90;;;;;;4959071;28;20181;-77
2021/04/04 11:38:32;;;;;;;4.50;2.40;;;14.40;53.00;;;;;;4934071;28;20318;-77
2021/04/04 11:41:20;;;;;;;6.23;2.47;;;14.90;49.70;;;;;;4986667;28;20180;-77
2021/04/04 11:43:52;;;;;;;4.80;3.60;;;15.50;48.90;;;;;;4978034;28;20651;-78
2021/04/04 11:46:43;;;;;;;4.63;2.70;;;16.00;47.10;;;;;;4991736;28;20200;-78
2021/04/04 11:49:28;;;;;;;3.03;2.00;;;15.70;47.00;;;;;;4992081;28;20188;-78
2021/04/04 11:52:17;;;;;;;5.57;2.13;;;15.00;48.30;;;;;;4977378;28;20648;-77
2021/04/04 11:54:45;;;;;;;2.80;2.03;;;14.20;47.40;;;;;;4965680;28;20192;-77
2021/04/04 11:57:15;;;;;;;3.43;2.20;;;13.30;48.20;;;;;;4975578;28;20215;-76
2021/04/04 11:59:40;;;;;;;5.30;2.83;;;13.60;51.30;;;;;;4976075;28;20172;-76
2021/04/04 12:02:06;;;;;;;5.73;2.57;;;14.60;53.40;;;;;;4979185;28;20179;-77
2021/04/04 12:04:33;;;;;;;3.73;2.17;;;15.70;51.40;;;;;;4983720;28;20175;-76
2021/04/04 12:07:05;;;;;;;3.20;2.90;;;16.10;46.10;;;;;;4977195;28;20298;-76
2021/04/04 12:09:33;;;;;;;5.53;5.03;;;16.60;45.00;;;;;;4977074;28;20646;-76
2021/04/04 12:11:59;;;;;;;2.80;1.97;;;17.20;45.70;;;;;;4976621;28;20174;-77
2021/04/04 12:14:24;;;;;;;5.17;2.40;;;16.50;44.80;;;;;;4976684;28;20587;-77
2021/04/04 12:16:50;;;;;;;7.03;2.40;;;16.40;45.20;;;;;;4974955;28;20671;-77
2021/04/04 12:19:26;;;;;;;3.97;2.10;;;16.10;44.40;;;;;;4974840;28;20210;-77
2021/04/04 12:21:52;;;;;;;4.07;2.03;;;16.40;44.10;;;;;;4975663;28;20167;-77
2021/04/04 12:24:19;;;;;;;3.37;2.33;;;16.60;45.60;;;;;;4975627;28;20179;-77
2021/04/04 12:26:45;;;;;;;3.13;2.03;;;16.80;46.00;;;;;;4975619;28;20220;-77
2021/04/04 12:29:11;;;;;;;5.03;2.50;;;17.30;46.40;;;;;;4975946;28;20178;-74
2021/04/04 12:31:41;;;;;;;3.30;1.90;;;17.70;42.80;;;;;;4976688;28;20221;-77
2021/04/04 12:34:07;;;;;;;2.63;1.90;;;17.70;39.40;;;;;;4975804;28;20170;-77
2021/04/04 12:36:42;;;;;;;3.37;2.40;;;17.90;42.40;;;;;;4975808;28;20199;-75
2021/04/04 12:39:09;;;;;;;8.43;3.90;;;17.90;43.00;;;;;;4990957;28;20234;-76
2021/04/04 12:41:35;;;;;;;3.87;2.67;;;18.40;41.70;;;;;;4975471;28;20261;-76
2021/04/04 12:44:01;;;;;;;5.13;2.70;;;18.50;43.90;;;;;;4975316;28;20177;-76
2021/04/04 12:46:31;;;;;;;5.90;2.47;;;18.20;44.20;;;;;;4973256;28;20198;-76
2021/04/04 12:48:57;;;;;;;4.50;2.17;;;18.10;43.50;;;;;;4975369;28;20650;-76
2021/04/04 12:51:23;;;;;;;2.40;2.10;;;17.60;43.50;;;;;;4990193;28;20184;-76
2021/04/04 12:53:50;;;;;;;5.27;2.37;;;17.60;42.70;;;;;;4975759;28;20262;-76
2021/04/04 12:56:34;;;;;;;3.73;2.60;;;17.80;42.00;;;;;;4974736;28;20282;-76
2021/04/04 12:59:02;;;;;;;5.50;3.13;;;17.90;41.60;;;;;;4975291;28;20207;-76
2021/04/04 13:01:28;;;;;;;3.63;2.40;;;18.30;42.10;;;;;;4975070;28;20172;-76
2021/04/04 13:03:54;;;;;;;3.10;2.40;;;18.60;42.10;;;;;;4989806;28;20190;-76
2021/04/04 13:06:22;;;;;;;3.33;2.50;;;18.50;42.70;;;;;;4974832;28;20197;-76
2021/04/04 13:08:48;;;;;;;4.17;2.03;;;19.20;40.70;;;;;;4974714;28;20175;-76
2021/04/04 13:11:16;;;;;;;3.27;2.47;;;19.90;39.30;;;;;;4975089;28;20180;-76
2021/04/04 13:13:47;;;;;;;3.80;2.30;;;19.50;39.10;;;;;;4973555;28;20646;-76